createdAt,value
2022-11-22T00:00:03.403Z,88.49
2022-11-22T00:05:33.870Z,88.22
2022-11-22T00:10:40.206Z,87.92
2022-11-22T00:15:47.466Z,87.68
2022-11-22T00:20:55.615Z,87.68
2022-11-22T00:26:02.255Z,88.00
2022-11-22T00:31:08.665Z,88.06
2022-11-22T00:36:17.468Z,88.11
2022-11-22T00:41:23.910Z,88.10
2022-11-22T00:46:30.531Z,88.28
2022-11-22T00:51:38.437Z,88.44
2022-11-22T00:56:44.654Z,88.31
2022-11-22T01:01:51.021Z,88.42
2022-11-22T01:06:58.903Z,88.13
2022-11-22T01:12:05.578Z,88.39
2022-11-22T01:17:11.999Z,88.33
2022-11-22T01:22:19.796Z,88.33
2022-11-22T01:27:26.159Z,88.40
2022-11-22T01:32:32.270Z,87.96
2022-11-22T01:37:39.767Z,87.65
2022-11-22T01:42:50.127Z,87.34
2022-11-22T01:47:56.553Z,87.27
2022-11-22T01:53:11.084Z,87.57
2022-11-22T01:58:18.219Z,87.39
2022-11-22T02:03:25.557Z,87.21
2022-11-22T02:08:41.718Z,87.75
2022-11-22T02:13:48.700Z,87.91
2022-11-22T02:18:54.701Z,87.89
2022-11-22T02:24:09.300Z,87.87
2022-11-22T02:29:17.595Z,87.75
2022-11-22T02:34:23.829Z,88.18
2022-11-22T02:39:33.282Z,87.80
2022-11-22T02:44:42.203Z,87.80
2022-11-22T02:49:48.512Z,88.28
2022-11-22T02:54:54.636Z,88.33
2022-11-22T03:00:02.414Z,88.09
2022-11-22T03:05:10.115Z,88.00
2022-11-22T03:10:16.673Z,87.85
2022-11-22T03:15:24.242Z,87.58
2022-11-22T03:20:31.583Z,87.67
2022-11-22T03:25:39.962Z,87.78
2022-11-22T03:30:47.760Z,87.51
2022-11-22T03:35:58.345Z,87.85
2022-11-22T03:41:05.810Z,87.75
2022-11-22T03:46:17.670Z,87.80
2022-11-22T03:51:24.196Z,87.78
2022-11-22T03:56:30.174Z,87.97
2022-11-22T04:01:37.786Z,87.80
2022-11-22T04:06:44.080Z,88.14
2022-11-22T04:11:50.407Z,87.57
2022-11-22T04:16:58.242Z,87.08
2022-11-22T04:22:04.325Z,87.50
2022-11-22T04:27:10.692Z,87.35
2022-11-22T04:32:35.730Z,87.05
2022-11-22T04:37:42.055Z,86.45
2022-11-22T04:43:05.355Z,86.89
2022-11-22T04:48:13.766Z,87.08
2022-11-22T04:53:21.078Z,87.25
2022-11-22T04:58:27.732Z,87.92
2022-11-22T05:03:35.567Z,87.83
2022-11-22T05:08:42.032Z,87.23
2022-11-22T05:13:48.258Z,86.34
2022-11-22T05:19:00.559Z,85.67
2022-11-22T05:24:07.866Z,85.21
2022-11-22T05:29:13.885Z,85.65
2022-11-22T05:34:21.677Z,85.17
2022-11-22T05:39:28.021Z,85.15
2022-11-22T05:44:34.483Z,86.67
2022-11-22T05:49:42.080Z,86.64
2022-11-22T05:54:48.145Z,85.80
2022-11-22T05:59:54.330Z,85.51
2022-11-22T06:05:02.603Z,87.50
2022-11-22T06:10:10.261Z,88.81
2022-11-22T06:15:16.675Z,89.75
2022-11-22T06:20:24.668Z,90.86
2022-11-22T06:25:31.422Z,90.76
2022-11-22T06:30:37.673Z,91.40
2022-11-22T06:35:45.440Z,91.52
2022-11-22T06:40:51.792Z,91.79
2022-11-22T06:45:58.825Z,91.71
2022-11-22T06:51:08.952Z,92.17
2022-11-22T06:56:17.410Z,92.39
2022-11-22T07:01:26.279Z,92.40
2022-11-22T07:06:35.513Z,92.67
2022-11-22T07:11:42.557Z,92.61
2022-11-22T07:16:48.913Z,92.73
2022-11-22T07:21:56.604Z,92.70
2022-11-22T07:27:02.763Z,92.71
2022-11-22T07:32:09.130Z,92.76
2022-11-22T07:37:16.920Z,92.75
2022-11-22T07:42:26.127Z,92.60
2022-11-22T07:47:33.906Z,92.66
2022-11-22T07:52:41.698Z,92.78
2022-11-22T07:57:47.843Z,92.52
2022-11-22T08:02:54.139Z,92.41
2022-11-22T08:08:01.853Z,92.46
2022-11-22T08:13:07.995Z,92.45
2022-11-22T08:18:14.155Z,92.58
2022-11-22T08:23:21.679Z,92.47
2022-11-22T08:28:27.921Z,92.55
2022-11-22T08:33:34.043Z,92.43
2022-11-22T08:38:41.824Z,92.79
2022-11-22T08:43:48.032Z,92.27
2022-11-22T08:48:54.968Z,92.02
2022-11-22T08:54:02.936Z,91.90
2022-11-22T08:59:09.782Z,91.83
2022-11-22T09:04:16.201Z,91.67
2022-11-22T09:09:37.227Z,91.48
2022-11-22T09:14:43.944Z,91.30
2022-11-22T09:19:50.236Z,91.46
2022-11-22T09:24:57.921Z,91.39
2022-11-22T09:30:04.448Z,91.30
2022-11-22T09:35:11.255Z,91.09
2022-11-22T09:40:19.388Z,91.13
2022-11-22T09:46:11.128Z,90.63
2022-11-22T09:51:21.725Z,90.32
2022-11-22T09:56:31.253Z,89.94
2022-11-22T10:01:42.023Z,89.66
2022-11-22T10:06:52.406Z,89.54
2022-11-22T10:12:08.981Z,89.17
2022-11-22T10:17:43.129Z,88.98
2022-11-22T10:22:50.865Z,88.35
2022-11-22T10:28:07.709Z,88.55
2022-11-22T10:33:24.760Z,88.54
2022-11-22T10:38:53.478Z,88.36
2022-11-22T10:44:17.549Z,88.37
2022-11-22T10:49:38.378Z,88.22
2022-11-22T10:54:54.035Z,87.62
2022-11-22T11:00:19.111Z,86.64
2022-11-22T11:06:00.933Z,86.50
2022-11-22T11:11:06.284Z,85.91
2022-11-22T11:16:18.924Z,86.04
2022-11-22T11:21:26.771Z,85.61
2022-11-22T11:26:36.387Z,85.48
2022-11-22T11:31:48.246Z,85.29
2022-11-22T11:36:58.805Z,84.91
2022-11-22T11:42:26.404Z,84.57
2022-11-22T11:47:37.329Z,84.42
2022-11-22T11:52:54.452Z,84.49
2022-11-22T11:58:00.772Z,84.70
2022-11-22T12:03:13.929Z,84.92
2022-11-22T12:08:38.185Z,84.77
2022-11-22T12:14:18.523Z,85.19
2022-11-22T12:19:30.816Z,84.95
2022-11-22T12:25:03.133Z,84.82
2022-11-22T12:30:15.259Z,84.93
2022-11-22T12:35:26.180Z,84.86
2022-11-22T12:40:41.770Z,84.47
2022-11-22T12:45:51.717Z,84.87
2022-11-22T12:51:09.049Z,84.49
2022-11-22T12:56:32.700Z,84.24
2022-11-22T13:01:51.763Z,83.61
2022-11-22T13:07:08.964Z,83.10
2022-11-22T13:12:18.994Z,82.98
2022-11-22T13:17:28.512Z,82.45
2022-11-22T13:22:47.816Z,82.00
2022-11-22T13:27:59.321Z,82.00
2022-11-22T13:33:06.223Z,81.80
2022-11-22T13:38:18.897Z,81.38
2022-11-22T13:43:51.993Z,81.41
2022-11-22T13:49:17.373Z,81.60
2022-11-22T13:55:02.803Z,81.33
2022-11-22T14:00:48.896Z,81.40
2022-11-22T14:05:59.246Z,81.43
2022-11-22T14:11:35.222Z,81.42
2022-11-22T14:17:01.459Z,81.59
2022-11-22T14:22:20.819Z,81.95
2022-11-22T14:27:45.513Z,81.96
2022-11-22T14:33:02.973Z,81.86
2022-11-22T14:38:33.515Z,82.00
2022-11-22T14:43:43.311Z,82.02
2022-11-22T14:48:57.966Z,82.43
2022-11-22T14:54:07.852Z,82.32
2022-11-22T14:59:59.356Z,82.54
2022-11-22T15:09:11.063Z,82.55
2022-11-22T15:11:13.153Z,82.37
2022-11-22T16:00:26.837Z,83.01
2022-11-22T16:06:07.516Z,83.31
2022-11-22T16:11:04.951Z,83.19
2022-11-22T16:16:23.136Z,83.19
2022-11-22T16:21:32.623Z,83.30
2022-11-22T16:26:39.687Z,83.65
2022-11-22T16:31:49.395Z,83.66
2022-11-22T16:36:57.486Z,83.82
2022-11-22T16:42:05.148Z,84.03
2022-11-22T16:47:16.730Z,84.20
2022-11-22T16:52:27.541Z,84.20
2022-11-22T16:57:34.099Z,84.46
2022-11-22T17:02:44.180Z,84.44
2022-11-22T17:07:53.003Z,84.63
2022-11-22T17:12:59.984Z,84.64
2022-11-22T17:18:09.182Z,85.02
2022-11-22T17:23:23.339Z,85.02
2022-11-22T17:28:31.048Z,85.08
2022-11-22T17:33:40.420Z,84.98
2022-11-22T17:38:50.152Z,85.11
2022-11-22T17:43:57.107Z,85.23
2022-11-22T17:49:05.443Z,85.28
2022-11-22T17:54:14.711Z,85.66
2022-11-22T17:59:23.044Z,85.55
2022-11-22T18:04:31.300Z,85.51
2022-11-22T18:09:40.943Z,85.77
2022-11-22T18:14:49.608Z,86.14
2022-11-22T18:19:57.088Z,85.95
2022-11-22T18:25:07.771Z,86.14
2022-11-22T18:30:17.335Z,86.18
2022-11-22T18:35:24.732Z,86.29
2022-11-22T18:40:34.876Z,86.14
2022-11-22T18:45:42.476Z,86.21
2022-11-22T18:50:49.541Z,86.32
2022-11-22T18:56:05.293Z,86.36
2022-11-22T19:01:15.532Z,86.45
2022-11-22T19:06:23.171Z,86.53
2022-11-22T19:11:33.708Z,86.82
2022-11-22T19:16:41.454Z,86.86
2022-11-22T19:21:50.322Z,86.91
2022-11-22T19:26:59.897Z,86.91
2022-11-22T19:32:09.120Z,87.38
2022-11-22T19:37:16.752Z,87.36
2022-11-22T19:42:27.257Z,87.38
2022-11-22T19:47:34.737Z,87.74
2022-11-22T19:52:43.167Z,87.67
2022-11-22T19:57:51.328Z,87.34
2022-11-22T20:02:59.833Z,87.41
2022-11-22T20:08:07.801Z,87.47
2022-11-22T20:13:19.318Z,87.30
2022-11-22T20:18:27.063Z,87.64
2022-11-22T20:23:35.232Z,87.73
2022-11-22T20:28:49.767Z,87.59
2022-11-22T20:33:59.785Z,87.77
2022-11-22T20:39:10.725Z,87.49
2022-11-22T20:44:24.582Z,87.84
2022-11-22T20:49:33.250Z,87.82
2022-11-22T20:54:40.803Z,88.23
2022-11-22T20:59:49.008Z,87.78
2022-11-22T21:05:01.025Z,87.76
2022-11-22T21:10:10.056Z,88.04
2022-11-22T21:15:19.643Z,87.86
2022-11-22T21:20:26.914Z,87.67
2022-11-22T21:25:33.647Z,87.86
2022-11-22T21:30:41.564Z,87.79
2022-11-22T21:35:48.605Z,87.88
2022-11-22T21:41:10.775Z,87.64
2022-11-22T21:46:25.467Z,87.50
2022-11-22T21:51:32.340Z,87.71
2022-11-22T21:56:38.776Z,87.99
2022-11-22T22:01:46.842Z,88.06
2022-11-22T22:06:53.716Z,88.08
2022-11-22T22:12:00.096Z,88.28
2022-11-22T22:17:07.981Z,88.25
2022-11-22T22:22:14.438Z,88.06
2022-11-22T22:27:21.286Z,88.16
2022-11-22T22:32:29.760Z,88.22
2022-11-22T22:37:36.446Z,87.80
2022-11-22T22:42:44.534Z,88.31
2022-11-22T22:47:52.944Z,88.23
2022-11-22T22:52:59.633Z,88.46
2022-11-22T22:58:08.439Z,88.42
2022-11-22T23:03:18.898Z,88.37
2022-11-22T23:08:25.756Z,88.53
2022-11-22T23:13:33.082Z,88.39
2022-11-22T23:18:43.845Z,88.12
2022-11-22T23:23:50.220Z,88.36
2022-11-22T23:28:56.709Z,88.54
2022-11-22T23:34:05.202Z,88.13
2022-11-22T23:39:11.977Z,88.54
2022-11-22T23:44:18.595Z,88.51
2022-11-22T23:49:26.372Z,88.41
2022-11-22T23:54:33.047Z,88.75
2022-11-22T23:59:39.511Z,88.73
